Time;durP1;ratioP1;P1;durP2;ratioP2;P2;SDS_P1;SDS_P2;PMS_P1;PMS_P2;Temp;Humidity;BMP_temperature;BMP_pressure;BME280_temperature;BME280_humidity;BME280_pressure;Samples;Min_cycle;Max_cycle;Signal;HPM_P1;HPM_P2
2024/04/07 00:01:12;;;;;;;0.20;0.20;;;;;;;;;;5063467;28;20502;-75
2024/04/07 00:03:39;;;;;;;0.30;0.30;;;;;;;;;;5063465;28;20048;-73
2024/04/07 00:06:04;;;;;;;0.73;0.65;;;;;;;;;;5060194;28;20036;-73
2024/04/07 00:08:30;;;;;;;0.45;0.40;;;;;;;;;;5067944;28;20042;-74
2024/04/07 00:10:55;;;;;;;0.28;0.28;;;;;;;;;;5060930;28;20047;-74
2024/04/07 00:13:21;;;;;;;1.75;0.85;;;;;;;;;;5056780;28;20538;-74
2024/04/07 00:15:46;;;;;;;0.32;0.32;;;;;;;;;;5058888;28;20125;-73
2024/04/07 00:18:11;;;;;;;0.20;0.20;;;;;;;;;;5064149;28;20127;-74
2024/04/07 00:20:38;;;;;;;0.22;0.22;;;;;;;;;;5060465;28;20115;-75
2024/04/07 00:23:03;;;;;;;0.77;0.77;;;;;;;;;;5060929;28;20061;-73
2024/04/07 00:25:29;;;;;;;0.30;0.30;;;;;;;;;;5059718;28;20043;-73
2024/04/07 00:27:54;;;;;;;0.30;0.30;;;;;;;;;;5066255;28;20036;-73
2024/04/07 00:30:19;;;;;;;0.73;0.70;;;;;;;;;;5064759;28;20032;-73
2024/04/07 00:32:45;;;;;;;1.17;0.82;;;;;;;;;;5064859;28;20040;-73
2024/04/07 00:35:10;;;;;;;0.20;0.20;;;;;;;;;;5056744;28;20143;-73
2024/04/07 00:37:35;;;;;;;1.40;0.85;;;;;;;;;;5062345;28;20558;-73
2024/04/07 00:40:01;;;;;;;0.60;0.50;;;;;;;;;;5061123;28;20072;-72
2024/04/07 00:42:26;;;;;;;0.43;0.35;;;;;;;;;;5063477;28;20044;-74
2024/04/07 00:44:52;;;;;;;1.23;0.68;;;;;;;;;;5039900;28;20063;-75
2024/04/07 00:47:18;;;;;;;0.30;0.30;;;;;;;;;;5042402;28;20056;-74
2024/04/07 00:49:45;;;;;;;0.98;0.90;;;;;;;;;;5052989;28;20068;-74
2024/04/07 00:52:11;;;;;;;1.55;0.30;;;;;;;;;;5055692;28;20054;-73
2024/04/07 00:54:38;;;;;;;0.65;0.50;;;;;;;;;;5047631;28;20037;-74
2024/04/07 00:57:03;;;;;;;0.30;0.30;;;;;;;;;;5054126;28;20427;-73
2024/04/07 00:59:29;;;;;;;0.60;0.50;;;;;;;;;;5055989;28;20022;-74
2024/04/07 01:01:54;;;;;;;0.40;0.40;;;;;;;;;;5061101;28;20563;-73
2024/04/07 01:04:19;;;;;;;1.08;1.05;;;;;;;;;;5053321;28;20049;-75
2024/04/07 01:06:45;;;;;;;0.63;0.55;;;;;;;;;;5057776;28;20032;-74
2024/04/07 01:09:10;;;;;;;0.30;0.30;;;;;;;;;;5056150;28;20048;-73
2024/04/07 01:11:37;;;;;;;0.63;0.63;;;;;;;;;;5053958;28;20126;-74
2024/04/07 01:14:02;;;;;;;0.28;0.28;;;;;;;;;;5057884;28;20186;-73
2024/04/07 01:16:28;;;;;;;2.97;2.70;;;;;;;;;;5062654;28;20136;-74
2024/04/07 01:18:53;;;;;;;0.45;0.40;;;;;;;;;;5064445;28;20051;-74
2024/04/07 01:21:18;;;;;;;0.85;0.77;;;;;;;;;;5063743;28;20094;-73
2024/04/07 01:23:44;;;;;;;0.73;0.73;;;;;;;;;;5061946;28;20032;-73
2024/04/07 01:26:09;;;;;;;0.63;0.63;;;;;;;;;;5043351;28;20489;-74
2024/04/07 01:28:35;;;;;;;0.70;0.70;;;;;;;;;;5055494;28;20039;-74
2024/04/07 01:31:01;;;;;;;0.73;0.73;;;;;;;;;;5060010;28;20063;-73
2024/04/07 01:33:27;;;;;;;0.70;0.70;;;;;;;;;;5062713;28;20040;-74
2024/04/07 01:35:52;;;;;;;0.93;0.88;;;;;;;;;;5061809;28;20028;-74
2024/04/07 01:38:18;;;;;;;6.32;0.80;;;;;;;;;;5066820;28;20029;-75
2024/04/07 01:40:47;;;;;;;0.60;0.60;;;;;;;;;;5041365;28;20041;-74
2024/04/07 01:43:12;;;;;;;0.32;0.32;;;;;;;;;;5064864;28;20098;-74
2024/04/07 01:45:38;;;;;;;1.58;1.35;;;;;;;;;;5056312;28;20523;-74
2024/04/07 01:48:03;;;;;;;1.00;0.90;;;;;;;;;;5059635;28;20480;-73
2024/04/07 01:50:28;;;;;;;0.50;0.50;;;;;;;;;;5059074;28;20029;-73
2024/04/07 01:52:54;;;;;;;1.05;0.95;;;;;;;;;;5062992;28;20151;-74
2024/04/07 01:55:20;;;;;;;1.35;1.25;;;;;;;;;;5067146;28;20051;-74
2024/04/07 01:57:45;;;;;;;0.60;0.50;;;;;;;;;;5068611;28;20035;-73
2024/04/07 02:00:10;;;;;;;0.75;0.70;;;;;;;;;;5064879;28;20476;-73
2024/04/07 02:02:39;;;;;;;0.63;0.63;;;;;;;;;;5067090;28;20037;-74
2024/04/07 02:05:05;;;;;;;1.13;1.02;;;;;;;;;;5056939;28;20040;-73
2024/04/07 02:07:31;;;;;;;0.70;0.70;;;;;;;;;;5062731;28;20124;-73
2024/04/07 02:09:56;;;;;;;0.70;0.63;;;;;;;;;;5046165;28;20046;-72
2024/04/07 02:12:21;;;;;;;1.20;1.10;;;;;;;;;;5062267;28;20051;-74
2024/04/07 02:14:47;;;;;;;0.55;0.55;;;;;;;;;;5061699;28;20038;-74
2024/04/07 02:17:12;;;;;;;0.45;0.43;;;;;;;;;;5068603;28;20035;-74
2024/04/07 02:19:38;;;;;;;1.83;1.65;;;;;;;;;;5062237;28;20528;-74
2024/04/07 02:22:04;;;;;;;1.23;1.13;;;;;;;;;;5044118;28;20139;-74
2024/04/07 02:24:29;;;;;;;1.25;1.08;;;;;;;;;;5061316;28;20638;-74
2024/04/07 02:26:55;;;;;;;0.93;0.85;;;;;;;;;;5058458;28;20131;-74
2024/04/07 02:29:20;;;;;;;1.13;0.80;;;;;;;;;;5065173;28;20035;-73
2024/04/07 02:31:47;;;;;;;0.88;0.82;;;;;;;;;;5064087;28;20037;-73
2024/04/07 02:34:13;;;;;;;0.38;0.38;;;;;;;;;;5057087;28;20036;-73
2024/04/07 02:36:39;;;;;;;3.28;0.85;;;;;;;;;;5060018;28;20037;-74
2024/04/07 02:39:09;;;;;;;1.42;1.00;;;;;;;;;;5062427;28;20036;-74
2024/04/07 02:41:34;;;;;;;1.13;1.02;;;;;;;;;;5046598;28;20029;-73
2024/04/07 02:44:00;;;;;;;0.30;0.30;;;;;;;;;;5060733;28;20055;-74
2024/04/07 02:49:09;;;;;;;3.33;1.50;;;;;;;;;;5055359;28;20047;-73
2024/04/07 02:51:34;;;;;;;1.85;1.20;;;;;;;;;;5060414;28;20708;-73
2024/04/07 02:54:00;;;;;;;0.85;0.85;;;;;;;;;;5060953;28;20024;-73
2024/04/07 02:56:25;;;;;;;2.20;1.40;;;;;;;;;;5058867;28;20503;-72
2024/04/07 02:58:50;;;;;;;1.25;1.15;;;;;;;;;;5055159;28;20040;-74
2024/04/07 03:01:16;;;;;;;11.02;0.93;;;;;;;;;;5065985;28;20044;-73
2024/04/07 03:03:44;;;;;;;6.28;1.65;;;;;;;;;;5066672;28;20511;-72
2024/04/07 03:06:09;;;;;;;2.35;2.15;;;;;;;;;;5055585;28;20048;-75
2024/04/07 03:08:35;;;;;;;1.65;1.55;;;;;;;;;;5059361;28;20032;-74
2024/04/07 03:11:02;;;;;;;1.77;1.67;;;;;;;;;;5064991;28;20041;-74
2024/04/07 03:13:27;;;;;;;2.20;1.77;;;;;;;;;;5051375;28;20446;-73
2024/04/07 03:15:52;;;;;;;1.60;0.88;;;;;;;;;;5053085;28;20037;-73
2024/04/07 03:18:18;;;;;;;0.63;0.63;;;;;;;;;;5037297;28;20404;-73
2024/04/07 03:20:43;;;;;;;1.10;0.90;;;;;;;;;;5041430;28;20099;-74
2024/04/07 03:23:09;;;;;;;0.82;0.77;;;;;;;;;;5040530;28;20459;-73
2024/04/07 03:25:34;;;;;;;0.93;0.77;;;;;;;;;;5057831;28;20048;-74
2024/04/07 03:28:00;;;;;;;3.60;2.10;;;;;;;;;;5061767;28;20762;-75
2024/04/07 03:30:26;;;;;;;1.15;1.05;;;;;;;;;;5058504;28;20119;-74
2024/04/07 03:32:51;;;;;;;0.70;0.63;;;;;;;;;;5058353;28;20062;-73
2024/04/07 03:35:17;;;;;;;3.58;1.33;;;;;;;;;;5060893;28;20566;-73
2024/04/07 03:37:42;;;;;;;0.68;0.50;;;;;;;;;;5065780;28;20032;-71
2024/04/07 03:40:08;;;;;;;3.63;1.90;;;;;;;;;;5063062;28;20079;-71
2024/04/07 03:42:33;;;;;;;1.10;0.93;;;;;;;;;;5062958;28;20049;-72
2024/04/07 03:44:59;;;;;;;1.25;1.15;;;;;;;;;;5062635;28;20040;-72
2024/04/07 03:47:24;;;;;;;2.40;1.90;;;;;;;;;;5057069;28;20036;-73
2024/04/07 03:49:49;;;;;;;2.03;1.83;;;;;;;;;;5060298;28;20499;-72
2024/04/07 03:52:15;;;;;;;0.98;0.88;;;;;;;;;;5066242;28;20055;-72
2024/04/07 03:54:40;;;;;;;1.35;1.25;;;;;;;;;;5064954;28;20597;-73
2024/04/07 03:57:05;;;;;;;2.88;2.67;;;;;;;;;;5059231;28;20060;-73
2024/04/07 03:59:31;;;;;;;1.50;1.25;;;;;;;;;;5056408;28;20052;-73
2024/04/07 04:02:00;;;;;;;0.50;0.50;;;;;;;;;;5061426;28;20087;-72
2024/04/07 04:04:25;;;;;;;2.72;1.52;;;;;;;;;;5075501;28;20050;-72
2024/04/07 04:06:51;;;;;;;1.30;1.13;;;;;;;;;;5043643;28;20401;-73
2024/04/07 04:09:16;;;;;;;2.35;2.15;;;;;;;;;;5058699;28;20555;-74
2024/04/07 04:11:42;;;;;;;1.80;0.88;;;;;;;;;;5066509;28;20020;-73
2024/04/07 04:14:07;;;;;;;0.65;0.65;;;;;;;;;;5064552;28;20047;-72
2024/04/07 04:16:32;;;;;;;2.20;1.70;;;;;;;;;;5050883;28;20937;-73
2024/04/07 04:18:58;;;;;;;2.10;1.67;;;;;;;;;;5061653;28;20426;-72
2024/04/07 04:21:23;;;;;;;4.15;2.67;;;;;;;;;;5065361;28;20043;-72
2024/04/07 04:23:49;;;;;;;2.13;1.92;;;;;;;;;;5064351;28;20045;-73
2024/04/07 04:26:14;;;;;;;1.17;1.08;;;;;;;;;;5060293;28;20038;-73
2024/04/07 04:28:39;;;;;;;2.95;1.15;;;;;;;;;;5057331;28;20047;-73
2024/04/07 04:31:09;;;;;;;1.38;1.23;;;;;;;;;;5065127;28;20480;-73
2024/04/07 04:33:34;;;;;;;3.15;1.20;;;;;;;;;;5064948;28;20071;-73
2024/04/07 04:36:00;;;;;;;1.20;0.90;;;;;;;;;;5059992;28;20388;-72
2024/04/07 04:38:25;;;;;;;1.05;0.95;;;;;;;;;;5061848;28;20030;-72
2024/04/07 04:40:54;;;;;;;2.65;2.13;;;;;;;;;;5065368;28;20163;-73
2024/04/07 04:43:20;;;;;;;1.90;1.42;;;;;;;;;;5063507;28;20057;-74
2024/04/07 04:45:49;;;;;;;2.75;1.50;;;;;;;;;;5057772;28;20509;-74
2024/04/07 04:48:15;;;;;;;1.83;1.40;;;;;;;;;;5055972;28;20040;-74
2024/04/07 04:50:40;;;;;;;3.75;3.45;;;;;;;;;;5062284;28;20046;-74
2024/04/07 04:53:06;;;;;;;1.20;1.13;;;;;;;;;;5063312;28;20105;-72
2024/04/07 04:55:31;;;;;;;2.03;1.85;;;;;;;;;;5062577;28;20040;-72
2024/04/07 04:57:57;;;;;;;1.75;1.65;;;;;;;;;;5064778;28;20928;-72
2024/04/07 05:00:22;;;;;;;2.83;2.58;;;;;;;;;;5054573;28;20662;-71
2024/04/07 05:02:47;;;;;;;1.92;1.77;;;;;;;;;;5054282;28;20566;-73
2024/04/07 05:05:13;;;;;;;1.50;1.40;;;;;;;;;;5058129;28;20039;-73
2024/04/07 05:07:38;;;;;;;0.55;0.52;;;;;;;;;;5059069;28;20041;-73
2024/04/07 05:10:04;;;;;;;1.73;1.63;;;;;;;;;;5054007;28;20797;-73
2024/04/07 05:12:29;;;;;;;2.33;1.90;;;;;;;;;;5067168;28;20058;-73
2024/04/07 05:14:56;;;;;;;1.27;1.17;;;;;;;;;;5063951;28;20041;-72
2024/04/07 05:17:21;;;;;;;3.13;2.03;;;;;;;;;;5057326;28;20078;-72
2024/04/07 05:19:50;;;;;;;1.13;0.95;;;;;;;;;;5059335;28;20063;-72
2024/04/07 05:22:16;;;;;;;2.85;1.35;;;;;;;;;;5062826;28;20055;-73
2024/04/07 05:24:41;;;;;;;0.68;0.68;;;;;;;;;;5060345;28;20037;-72
2024/04/07 05:27:06;;;;;;;0.40;0.40;;;;;;;;;;5060037;28;20040;-73
2024/04/07 05:29:32;;;;;;;2.83;1.58;;;;;;;;;;5064549;28;20506;-74
2024/04/07 05:31:57;;;;;;;3.40;2.63;;;;;;;;;;5041428;28;20049;-73
2024/04/07 05:34:22;;;;;;;1.77;1.30;;;;;;;;;;5063275;28;20044;-72
2024/04/07 05:36:48;;;;;;;0.30;0.30;;;;;;;;;;5068103;28;20040;-72
2024/04/07 05:39:14;;;;;;;0.85;0.73;;;;;;;;;;5060398;28;20036;-72
2024/04/07 05:41:39;;;;;;;0.73;0.50;;;;;;;;;;5046996;28;20132;-72
2024/04/07 05:44:04;;;;;;;4.70;1.92;;;;;;;;;;5052392;28;20519;-72
2024/04/07 05:46:30;;;;;;;0.30;0.30;;;;;;;;;;5064713;28;20048;-73
2024/04/07 05:48:55;;;;;;;5.68;1.20;;;;;;;;;;5063523;28;20047;-73
2024/04/07 05:51:21;;;;;;;2.03;1.80;;;;;;;;;;5067530;28;20496;-73
2024/04/07 05:53:46;;;;;;;1.23;1.13;;;;;;;;;;5064470;28;20040;-72
2024/04/07 05:56:12;;;;;;;0.32;0.32;;;;;;;;;;5056397;28;20025;-72
2024/04/07 05:58:38;;;;;;;0.68;0.68;;;;;;;;;;5061009;28;20044;-73
2024/04/07 06:01:03;;;;;;;0.98;0.93;;;;;;;;;;5056642;28;20032;-74
2024/04/07 06:03:28;;;;;;;0.98;0.82;;;;;;;;;;5061588;28;20059;-73
2024/04/07 06:05:54;;;;;;;0.88;0.82;;;;;;;;;;5062473;28;20029;-72
2024/04/07 06:08:19;;;;;;;2.60;1.35;;;;;;;;;;5066797;28;20029;-73
2024/04/07 06:10:45;;;;;;;0.75;0.63;;;;;;;;;;5051792;28;20048;-74
2024/04/07 06:13:10;;;;;;;0.98;0.77;;;;;;;;;;5055797;28;20041;-77
2024/04/07 06:15:35;;;;;;;0.68;0.68;;;;;;;;;;5059856;28;20486;-74
2024/04/07 06:18:01;;;;;;;0.30;0.30;;;;;;;;;;5052685;28;20032;-73
2024/04/07 06:20:26;;;;;;;0.50;0.50;;;;;;;;;;5053065;28;20123;-75
2024/04/07 06:22:51;;;;;;;0.93;0.75;;;;;;;;;;5059217;28;20056;-73
2024/04/07 06:25:17;;;;;;;4.45;1.27;;;;;;;;;;5057843;28;20036;-72
2024/04/07 06:27:42;;;;;;;1.17;1.08;;;;;;;;;;5066547;28;20062;-74
2024/04/07 06:30:08;;;;;;;1.98;0.95;;;;;;;;;;5063185;28;20033;-73
2024/04/07 06:32:34;;;;;;;0.50;0.50;;;;;;;;;;5056905;28;20032;-73
2024/04/07 06:34:59;;;;;;;0.35;0.32;;;;;;;;;;5039692;28;20037;-73
2024/04/07 06:37:25;;;;;;;0.88;0.63;;;;;;;;;;5058724;28;20150;-73
2024/04/07 06:39:50;;;;;;;0.80;0.50;;;;;;;;;;5061036;28;20040;-74
2024/04/07 06:42:22;;;;;;;0.73;0.70;;;;;;;;;;5064382;28;20064;-73
2024/04/07 06:44:48;;;;;;;1.58;1.48;;;;;;;;;;5065612;28;20395;-71
2024/04/07 06:47:13;;;;;;;0.95;0.52;;;;;;;;;;5069257;28;20028;-76
2024/04/07 06:49:39;;;;;;;0.50;0.30;;;;;;;;;;5056966;28;20115;-73
2024/04/07 06:52:04;;;;;;;0.55;0.55;;;;;;;;;;5060027;28;20017;-74
2024/04/07 06:54:29;;;;;;;0.20;0.20;;;;;;;;;;5061140;28;20177;-73
2024/04/07 06:56:55;;;;;;;0.20;0.20;;;;;;;;;;5063098;28;20090;-74
2024/04/07 06:59:20;;;;;;;0.20;0.20;;;;;;;;;;5061478;28;20040;-73
2024/04/07 07:01:46;;;;;;;1.17;1.02;;;;;;;;;;5062382;28;20117;-75
2024/04/07 07:04:11;;;;;;;6.63;1.55;;;;;;;;;;5053277;28;20048;-79
2024/04/07 07:06:37;;;;;;;1.65;0.40;;;;;;;;;;5058553;28;20024;-78
2024/04/07 07:09:03;;;;;;;0.40;0.30;;;;;;;;;;5054258;28;20064;-78
2024/04/07 07:11:29;;;;;;;0.40;0.40;;;;;;;;;;5057183;28;20056;-75
2024/04/07 07:13:54;;;;;;;0.73;0.68;;;;;;;;;;5053119;28;20408;-77
2024/04/07 07:16:20;;;;;;;0.28;0.28;;;;;;;;;;5064276;28;20037;-77
2024/04/07 07:18:54;;;;;;;0.88;0.68;;;;;;;;;;5060579;28;20044;-75
2024/04/07 07:21:21;;;;;;;0.30;0.30;;;;;;;;;;5041819;28;21693;-74
2024/04/07 07:23:46;;;;;;;9.60;2.45;;;;;;;;;;5040976;28;20139;-78
2024/04/07 07:26:12;;;;;;;1.98;1.75;;;;;;;;;;5059762;28;20061;-78
2024/04/07 07:28:37;;;;;;;0.45;0.35;;;;;;;;;;5054694;28;20080;-79
2024/04/07 07:31:03;;;;;;;1.80;1.70;;;;;;;;;;5057354;28;20047;-76
2024/04/07 07:33:28;;;;;;;0.32;0.32;;;;;;;;;;5059364;28;20032;-78
2024/04/07 07:35:53;;;;;;;0.43;0.43;;;;;;;;;;5023085;28;20112;-75
2024/04/07 07:38:19;;;;;;;1.00;0.80;;;;;;;;;;5036589;28;20040;-79
2024/04/07 07:40:47;;;;;;;0.30;0.30;;;;;;;;;;5057000;28;20050;-74
2024/04/07 07:43:12;;;;;;;1.85;1.00;;;;;;;;;;5040956;28;20127;-76
2024/04/07 07:45:37;;;;;;;0.40;0.38;;;;;;;;;;5065251;28;20128;-75
2024/04/07 07:48:05;;;;;;;2.08;1.88;;;;;;;;;;5063638;28;20037;-78
2024/04/07 07:50:31;;;;;;;0.25;0.25;;;;;;;;;;5057612;28;20391;-78
2024/04/07 07:52:58;;;;;;;1.13;1.02;;;;;;;;;;5058874;28;20036;-76
2024/04/07 07:55:23;;;;;;;2.70;1.05;;;;;;;;;;5050093;28;20047;-77
2024/04/07 07:57:49;;;;;;;0.22;0.22;;;;;;;;;;5060357;28;20024;-78
2024/04/07 08:00:14;;;;;;;0.63;0.63;;;;;;;;;;5057202;28;20053;-78
2024/04/07 08:02:40;;;;;;;0.47;0.47;;;;;;;;;;5042951;28;20053;-80
2024/04/07 08:05:05;;;;;;;0.73;0.73;;;;;;;;;;5045738;28;20055;-82
2024/04/07 08:07:33;;;;;;;1.65;1.27;;;;;;;;;;5059362;28;20037;-79
2024/04/07 08:09:59;;;;;;;1.17;0.70;;;;;;;;;;5056204;28;20020;-76
2024/04/07 08:12:24;;;;;;;0.20;0.20;;;;;;;;;;5057143;28;20028;-76
2024/04/07 08:14:49;;;;;;;0.50;0.50;;;;;;;;;;5051301;28;20047;-78
2024/04/07 08:17:15;;;;;;;4.57;2.00;;;;;;;;;;5065833;28;20444;-76
2024/04/07 08:19:40;;;;;;;3.42;1.67;;;;;;;;;;5061023;28;20048;-75
2024/04/07 08:22:06;;;;;;;0.47;0.47;;;;;;;;;;5055026;28;20024;-75
2024/04/07 08:24:31;;;;;;;2.05;1.27;;;;;;;;;;5024524;28;20127;-78
2024/04/07 08:26:56;;;;;;;1.38;1.27;;;;;;;;;;5057189;28;20044;-80
2024/04/07 08:29:23;;;;;;;1.17;0.88;;;;;;;;;;5058223;28;20048;-78
2024/04/07 08:31:48;;;;;;;0.20;0.20;;;;;;;;;;5067236;28;20036;-80
2024/04/07 08:34:14;;;;;;;0.60;0.60;;;;;;;;;;5058002;28;20045;-80
2024/04/07 08:36:39;;;;;;;0.30;0.30;;;;;;;;;;5073664;28;20031;-82
2024/04/07 08:39:04;;;;;;;1.90;0.95;;;;;;;;;;5072272;28;20365;-80
2024/04/07 08:41:31;;;;;;;0.88;0.88;;;;;;;;;;5059208;28;20044;-78
2024/04/07 08:43:57;;;;;;;0.32;0.32;;;;;;;;;;5050214;28;20197;-78
2024/04/07 08:46:23;;;;;;;0.52;0.52;;;;;;;;;;5055575;28;20492;-80
2024/04/07 08:48:51;;;;;;;0.30;0.30;;;;;;;;;;5054991;28;20511;-80
2024/04/07 08:51:17;;;;;;;0.65;0.50;;;;;;;;;;5059836;28;20871;-79
2024/04/07 08:53:42;;;;;;;1.42;1.33;;;;;;;;;;5042696;28;20124;-81
2024/04/07 08:56:08;;;;;;;0.50;0.50;;;;;;;;;;5022486;28;20679;-80
2024/04/07 08:58:38;;;;;;;0.50;0.47;;;;;;;;;;5041868;28;20047;-81
2024/04/07 09:01:04;;;;;;;0.73;0.60;;;;;;;;;;5053132;28;20025;-80
2024/04/07 09:03:30;;;;;;;0.65;0.52;;;;;;;;;;5068279;28;20044;-79
2024/04/07 09:05:56;;;;;;;0.63;0.45;;;;;;;;;;5047352;28;20043;-81
2024/04/07 09:08:21;;;;;;;0.70;0.43;;;;;;;;;;5061006;28;20078;-79
2024/04/07 09:10:47;;;;;;;0.20;0.20;;;;;;;;;;5057869;28;20044;-80
2024/04/07 09:13:12;;;;;;;0.30;0.25;;;;;;;;;;5059795;28;20045;-79
2024/04/07 09:15:37;;;;;;;0.20;0.20;;;;;;;;;;5036870;28;20036;-79
2024/04/07 09:18:03;;;;;;;0.20;0.20;;;;;;;;;;5056419;28;20078;-81
2024/04/07 09:20:30;;;;;;;0.30;0.30;;;;;;;;;;5033723;28;20044;-76
2024/04/07 09:22:55;;;;;;;1.50;0.73;;;;;;;;;;5049937;28;20547;-82
2024/04/07 09:25:21;;;;;;;0.60;0.20;;;;;;;;;;5061899;28;20036;-83
2024/04/07 09:27:46;;;;;;;2.17;0.65;;;;;;;;;;5067782;28;20071;-84
2024/04/07 09:30:11;;;;;;;2.63;2.10;;;;;;;;;;5053415;28;20044;-83
2024/04/07 09:32:37;;;;;;;0.95;0.70;;;;;;;;;;5056185;28;20190;-82
2024/04/07 09:35:03;;;;;;;0.20;0.20;;;;;;;;;;5035250;28;20060;-82
2024/04/07 09:37:29;;;;;;;0.30;0.30;;;;;;;;;;5047132;28;20046;-83
2024/04/07 09:39:54;;;;;;;0.10;0.10;;;;;;;;;;5065282;28;20440;-82
2024/04/07 09:42:20;;;;;;;0.65;0.60;;;;;;;;;;5068072;28;20552;-82
2024/04/07 09:44:46;;;;;;;0.30;0.30;;;;;;;;;;5065572;28;20127;-83
2024/04/07 09:47:13;;;;;;;0.75;0.60;;;;;;;;;;5062481;28;20524;-83
2024/04/07 09:49:40;;;;;;;0.20;0.20;;;;;;;;;;5065805;28;20122;-82
2024/04/07 09:52:07;;;;;;;0.47;0.47;;;;;;;;;;5065071;28;20126;-82
2024/04/07 09:54:32;;;;;;;0.32;0.32;;;;;;;;;;5053067;28;20647;-82
2024/04/07 09:56:58;;;;;;;0.20;0.20;;;;;;;;;;5064450;28;20210;-82
2024/04/07 09:59:25;;;;;;;1.13;0.73;;;;;;;;;;5059935;28;20614;-82
2024/04/07 10:01:50;;;;;;;2.88;1.83;;;;;;;;;;5061488;28;20091;-82
2024/04/07 10:04:16;;;;;;;1.20;1.10;;;;;;;;;;5060453;28;20052;-81
2024/04/07 10:06:42;;;;;;;0.35;0.35;;;;;;;;;;5066219;28;20044;-82
2024/04/07 10:09:09;;;;;;;0.30;0.30;;;;;;;;;;5061065;28;20029;-82
2024/04/07 10:11:35;;;;;;;0.52;0.52;;;;;;;;;;5063815;28;20094;-83
2024/04/07 10:14:00;;;;;;;0.93;0.90;;;;;;;;;;5059466;28;20036;-83
2024/04/07 10:16:26;;;;;;;0.40;0.40;;;;;;;;;;5045292;28;20044;-82
2024/04/07 10:18:52;;;;;;;0.20;0.20;;;;;;;;;;5064881;28;20067;-84
2024/04/07 10:21:17;;;;;;;0.30;0.30;;;;;;;;;;5060218;28;20043;-82
2024/04/07 10:23:43;;;;;;;0.43;0.38;;;;;;;;;;5066889;28;20087;-84
2024/04/07 10:26:09;;;;;;;0.82;0.80;;;;;;;;;;5050190;28;20036;-82
2024/04/07 10:28:48;;;;;;;0.47;0.40;;;;;;;;;;5063369;28;20036;-83
2024/04/07 10:31:26;;;;;;;0.20;0.20;;;;;;;;;;5054354;28;20040;-83
2024/04/07 10:33:53;;;;;;;0.30;0.30;;;;;;;;;;5048321;28;20048;-82
2024/04/07 10:36:20;;;;;;;1.15;0.85;;;;;;;;;;5066954;28;20096;-82
2024/04/07 10:38:51;;;;;;;0.47;0.45;;;;;;;;;;5050832;28;20082;-81
2024/04/07 10:41:21;;;;;;;0.25;0.25;;;;;;;;;;5066873;28;20044;-83
2024/04/07 10:43:47;;;;;;;0.50;0.50;;;;;;;;;;5069238;28;20076;-81
2024/04/07 10:46:12;;;;;;;0.52;0.52;;;;;;;;;;5069819;28;20201;-82
2024/04/07 10:48:38;;;;;;;0.20;0.20;;;;;;;;;;5062679;28;20034;-82
2024/04/07 10:51:03;;;;;;;0.68;0.50;;;;;;;;;;5050991;28;20029;-83
2024/04/07 10:53:29;;;;;;;1.17;0.40;;;;;;;;;;5033452;28;20049;-83
2024/04/07 10:55:54;;;;;;;0.30;0.30;;;;;;;;;;5027494;28;20151;-83
2024/04/07 10:58:21;;;;;;;0.35;0.35;;;;;;;;;;5042322;28;20412;-83
2024/04/07 11:00:46;;;;;;;0.43;0.28;;;;;;;;;;5047072;28;20110;-83
2024/04/07 11:03:13;;;;;;;1.52;1.42;;;;;;;;;;5036530;28;20124;-83
2024/04/07 11:05:39;;;;;;;0.70;0.70;;;;;;;;;;5040536;28;20049;-83
2024/04/07 11:08:05;;;;;;;0.52;0.47;;;;;;;;;;5041654;28;20049;-83
2024/04/07 11:10:39;;;;;;;5.35;1.05;;;;;;;;;;5046361;28;20098;-83
2024/04/07 11:13:08;;;;;;;0.35;0.30;;;;;;;;;;5048132;28;20017;-82
2024/04/07 11:15:33;;;;;;;0.57;0.57;;;;;;;;;;5048388;28;20134;-85
2024/04/07 11:17:59;;;;;;;0.10;0.10;;;;;;;;;;5044866;28;20045;-83
2024/04/07 11:20:24;;;;;;;0.50;0.50;;;;;;;;;;5036380;28;20041;-83
2024/04/07 11:22:50;;;;;;;0.88;0.73;;;;;;;;;;5033544;28;20493;-83
2024/04/07 11:25:15;;;;;;;0.32;0.32;;;;;;;;;;5037350;28;20575;-82
2024/04/07 11:27:41;;;;;;;0.55;0.55;;;;;;;;;;5038873;28;20025;-82
2024/04/07 11:30:07;;;;;;;0.30;0.30;;;;;;;;;;5038746;28;20040;-84
2024/04/07 11:32:36;;;;;;;0.73;0.73;;;;;;;;;;5040593;28;20045;-84
2024/04/07 11:35:03;;;;;;;0.25;0.22;;;;;;;;;;5042063;28;20465;-83
2024/04/07 11:37:29;;;;;;;0.65;0.65;;;;;;;;;;5055815;28;20123;-83
2024/04/07 11:39:54;;;;;;;0.50;0.40;;;;;;;;;;5046482;28;20143;-82
2024/04/07 11:42:22;;;;;;;1.13;0.75;;;;;;;;;;5048408;28;20029;-85
2024/04/07 11:44:48;;;;;;;0.28;0.28;;;;;;;;;;5046167;28;20116;-83
2024/04/07 11:47:13;;;;;;;0.22;0.22;;;;;;;;;;5047587;28;20120;-82
2024/04/07 11:49:39;;;;;;;0.20;0.20;;;;;;;;;;5044136;28;20168;-83
2024/04/07 11:52:04;;;;;;;1.00;0.60;;;;;;;;;;5046609;28;20531;-83
2024/04/07 11:54:30;;;;;;;0.43;0.43;;;;;;;;;;5045101;28;20063;-84
2024/04/07 11:56:55;;;;;;;0.20;0.20;;;;;;;;;;5059560;28;20471;-83
2024/04/07 11:59:21;;;;;;;0.20;0.20;;;;;;;;;;5059503;28;20045;-83
2024/04/07 12:01:47;;;;;;;0.20;0.20;;;;;;;;;;5075538;28;20140;-84
2024/04/07 12:04:12;;;;;;;0.20;0.20;;;;;;;;;;5062002;28;20135;-81
2024/04/07 12:06:38;;;;;;;1.30;0.75;;;;;;;;;;5064135;28;20112;-81
2024/04/07 12:09:07;;;;;;;0.20;0.20;;;;;;;;;;5064300;28;20045;-82
2024/04/07 12:11:32;;;;;;;1.75;1.15;;;;;;;;;;5047424;28;20049;-82
2024/04/07 12:13:58;;;;;;;0.20;0.20;;;;;;;;;;5047794;28;20048;-84
2024/04/07 12:16:23;;;;;;;0.28;0.28;;;;;;;;;;5043785;28;20044;-82
2024/04/07 12:18:48;;;;;;;0.25;0.25;;;;;;;;;;5039051;28;20433;-83
2024/04/07 12:21:14;;;;;;;0.28;0.28;;;;;;;;;;5041639;28;20083;-83
2024/04/07 12:23:39;;;;;;;0.20;0.20;;;;;;;;;;5042740;28;20535;-82
2024/04/07 12:26:05;;;;;;;0.20;0.20;;;;;;;;;;5047354;28;20037;-84
2024/04/07 12:28:30;;;;;;;1.17;1.05;;;;;;;;;;5036848;28;20513;-81
2024/04/07 12:30:55;;;;;;;0.70;0.47;;;;;;;;;;5038651;28;20032;-82
2024/04/07 12:33:21;;;;;;;0.20;0.20;;;;;;;;;;5027950;28;20029;-81
2024/04/07 12:35:48;;;;;;;0.20;0.20;;;;;;;;;;5038216;28;20357;-82
2024/04/07 12:38:13;;;;;;;0.60;0.60;;;;;;;;;;5037262;28;20219;-85
2024/04/07 12:40:38;;;;;;;0.43;0.43;;;;;;;;;;5047351;28;20395;-84
2024/04/07 12:43:05;;;;;;;0.73;0.73;;;;;;;;;;5042810;28;20076;-82
2024/04/07 12:45:31;;;;;;;0.50;0.43;;;;;;;;;;5040496;28;20031;-85
2024/04/07 12:47:56;;;;;;;0.20;0.20;;;;;;;;;;5030728;28;20120;-87
2024/04/07 12:50:21;;;;;;;0.32;0.28;;;;;;;;;;5042659;28;20047;-83
2024/04/07 12:52:47;;;;;;;0.25;0.22;;;;;;;;;;5039644;28;20040;-86
2024/04/07 12:55:13;;;;;;;0.20;0.20;;;;;;;;;;5023897;28;20048;-83
2024/04/07 12:57:40;;;;;;;0.57;0.57;;;;;;;;;;5055774;28;20127;-82
2024/04/07 13:00:06;;;;;;;0.65;0.32;;;;;;;;;;5065098;28;20127;-82
2024/04/07 13:02:32;;;;;;;0.60;0.30;;;;;;;;;;5059110;28;20134;-82
2024/04/07 13:04:58;;;;;;;0.38;0.38;;;;;;;;;;5054051;28;20083;-83
2024/04/07 13:07:23;;;;;;;0.32;0.32;;;;;;;;;;5062913;28;20477;-82
2024/04/07 13:09:49;;;;;;;0.98;0.85;;;;;;;;;;5052936;28;20063;-84
2024/04/07 13:12:14;;;;;;;0.98;0.90;;;;;;;;;;5054801;28;20470;-81
2024/04/07 13:14:40;;;;;;;1.42;1.33;;;;;;;;;;5053494;28;20041;-81
2024/04/07 13:17:05;;;;;;;1.30;1.02;;;;;;;;;;5059840;28;20056;-83
2024/04/07 13:19:31;;;;;;;0.30;0.30;;;;;;;;;;5054302;28;20057;-83
2024/04/07 13:21:56;;;;;;;1.45;0.90;;;;;;;;;;5060746;28;20384;-83
2024/04/07 13:24:21;;;;;;;0.57;0.57;;;;;;;;;;5054567;28;20045;-82
2024/04/07 13:26:47;;;;;;;0.30;0.30;;;;;;;;;;5058308;28;20044;-82
2024/04/07 13:29:12;;;;;;;0.45;0.40;;;;;;;;;;5040277;28;20113;-82
2024/04/07 13:31:37;;;;;;;0.80;0.68;;;;;;;;;;5055904;28;20506;-83
2024/04/07 13:34:03;;;;;;;0.52;0.28;;;;;;;;;;5056465;28;20052;-81
2024/04/07 13:36:28;;;;;;;0.43;0.43;;;;;;;;;;5059058;28;20024;-82
2024/04/07 13:38:54;;;;;;;0.20;0.20;;;;;;;;;;5060073;28;20105;-83
2024/04/07 13:41:21;;;;;;;0.98;0.98;;;;;;;;;;5057728;28;20035;-82
2024/04/07 13:43:46;;;;;;;0.20;0.20;;;;;;;;;;5059960;28;20793;-80
2024/04/07 13:46:12;;;;;;;0.28;0.28;;;;;;;;;;5054872;28;20045;-81
2024/04/07 13:48:37;;;;;;;1.15;1.05;;;;;;;;;;5059916;28;20033;-81
2024/04/07 13:51:04;;;;;;;0.20;0.20;;;;;;;;;;5041694;28;20077;-82
2024/04/07 13:53:29;;;;;;;0.13;0.13;;;;;;;;;;5056571;28;20821;-82
2024/04/07 13:55:55;;;;;;;0.20;0.20;;;;;;;;;;5059742;28;20113;-86
2024/04/07 13:58:20;;;;;;;9.65;4.07;;;;;;;;;;5065040;28;20041;-83
2024/04/07 14:00:46;;;;;;;0.20;0.20;;;;;;;;;;5034969;28;20044;-84
2024/04/07 14:03:11;;;;;;;1.27;1.00;;;;;;;;;;5064857;28;20056;-85
2024/04/07 14:05:40;;;;;;;0.38;0.38;;;;;;;;;;5066364;28;20125;-84
2024/04/07 14:08:06;;;;;;;1.63;1.00;;;;;;;;;;5057299;28;20064;-86
2024/04/07 14:10:32;;;;;;;0.13;0.13;;;;;;;;;;5061136;28;20491;-85
2024/04/07 14:12:57;;;;;;;1.40;1.27;;;;;;;;;;5057119;28;20023;-86
2024/04/07 14:15:23;;;;;;;0.20;0.20;;;;;;;;;;5043130;28;20036;-86
2024/04/07 14:17:49;;;;;;;0.30;0.30;;;;;;;;;;5057903;28;20051;-87
2024/04/07 14:20:15;;;;;;;0.60;0.55;;;;;;;;;;5055590;28;20037;-87
2024/04/07 14:22:41;;;;;;;0.55;0.55;;;;;;;;;;5052631;28;20059;-86
2024/04/07 14:25:07;;;;;;;0.45;0.45;;;;;;;;;;5059373;28;20024;-83
2024/04/07 14:27:32;;;;;;;0.60;0.60;;;;;;;;;;5045503;28;20463;-85
2024/04/07 14:29:58;;;;;;;0.22;0.22;;;;;;;;;;5041469;28;20036;-88
2024/04/07 14:32:23;;;;;;;0.20;0.20;;;;;;;;;;5028883;28;20210;-83
2024/04/07 14:34:48;;;;;;;0.20;0.20;;;;;;;;;;5055548;28;20040;-84
2024/04/07 14:37:14;;;;;;;0.15;0.15;;;;;;;;;;5070145;28;20431;-80